Time;durP1;ratioP1;P1;durP2;ratioP2;P2;SDS_P1;SDS_P2;PMS_P1;PMS_P2;Temp;Humidity;BMP_temperature;BMP_pressure;BME280_temperature;BME280_humidity;BME280_pressure;Samples;Min_cycle;Max_cycle;Signal;HPM_P1;HPM_P2
2021/03/18 00:01:16;;;;;;;9.55;3.95;;;3.30;99.90;;;;;;4902691;29;20024;-86
2021/03/18 00:03:46;;;;;;;6.15;3.53;;;3.00;99.90;;;;;;4902721;29;20036;-85
2021/03/18 00:06:12;;;;;;;10.73;4.53;;;3.20;99.90;;;;;;4902951;29;20020;-86
2021/03/18 00:08:39;;;;;;;5.75;3.60;;;3.30;99.90;;;;;;4902606;29;20040;-87
2021/03/18 00:11:11;;;;;;;6.22;3.55;;;3.30;99.90;;;;;;4902613;29;20504;-86
2021/03/18 00:13:39;;;;;;;7.18;3.67;;;2.80;99.90;;;;;;4902642;29;20032;-86
2021/03/18 00:16:05;;;;;;;6.82;3.92;;;2.30;99.90;;;;;;4902571;29;20135;-86
2021/03/18 00:18:34;;;;;;;9.18;3.90;;;2.40;99.90;;;;;;4902766;29;20115;-86
2021/03/18 00:21:01;;;;;;;8.10;3.78;;;2.30;99.90;;;;;;4902394;29;20028;-86
2021/03/18 00:23:30;;;;;;;7.40;3.75;;;1.90;99.90;;;;;;4919388;29;20095;-85
2021/03/18 00:25:57;;;;;;;7.35;3.83;;;2.00;99.90;;;;;;4902057;29;20563;-86
2021/03/18 00:28:23;;;;;;;7.28;3.53;;;2.70;99.90;;;;;;4902317;29;20032;-86
2021/03/18 00:30:49;;;;;;;7.18;3.50;;;1.80;99.90;;;;;;4902251;29;20020;-86
2021/03/18 00:33:14;;;;;;;11.13;3.80;;;2.10;99.90;;;;;;4918905;29;20076;-86
2021/03/18 00:35:41;;;;;;;8.63;3.97;;;2.00;99.90;;;;;;4919404;29;20091;-86
2021/03/18 00:38:06;;;;;;;6.50;3.60;;;1.90;99.90;;;;;;4919116;29;20020;-86
2021/03/18 00:40:41;;;;;;;6.55;3.63;;;2.00;99.90;;;;;;4919270;29;20490;-85
2021/03/18 00:43:12;;;;;;;6.28;3.83;;;2.00;99.90;;;;;;4902093;29;20032;-86
2021/03/18 00:45:40;;;;;;;11.07;3.80;;;2.00;99.90;;;;;;4918926;29;20028;-85
2021/03/18 00:48:08;;;;;;;6.63;3.90;;;2.20;99.90;;;;;;4901893;29;20032;-86
2021/03/18 00:50:40;;;;;;;7.70;3.55;;;2.40;99.90;;;;;;4918889;29;20028;-85
2021/03/18 00:53:08;;;;;;;6.03;3.75;;;2.40;99.90;;;;;;4918849;29;20031;-86
2021/03/18 00:55:35;;;;;;;8.95;3.47;;;2.40;99.90;;;;;;4901794;29;20072;-86
2021/03/18 00:58:01;;;;;;;6.57;3.50;;;2.30;99.90;;;;;;4902619;29;20024;-86
2021/03/18 01:00:32;;;;;;;6.55;3.28;;;2.40;99.90;;;;;;4901674;29;20119;-86
2021/03/18 01:02:57;;;;;;;5.47;3.47;;;2.90;99.90;;;;;;4918660;29;20028;-86
2021/03/18 01:05:28;;;;;;;8.75;3.42;;;3.00;99.90;;;;;;4901640;29;20028;-87
2021/03/18 01:07:54;;;;;;;6.80;3.22;;;2.80;99.90;;;;;;4901627;29;20028;-86
2021/03/18 01:10:20;;;;;;;9.13;3.50;;;2.80;99.90;;;;;;4901580;29;20384;-86
2021/03/18 01:12:46;;;;;;;5.00;3.40;;;2.80;99.90;;;;;;4901468;29;20119;-86
2021/03/18 01:15:13;;;;;;;8.10;3.67;;;2.80;99.90;;;;;;4901428;29;20484;-86
2021/03/18 01:17:40;;;;;;;5.80;3.17;;;2.80;99.90;;;;;;4901346;29;20038;-86
2021/03/18 01:20:11;;;;;;;5.68;3.47;;;2.70;99.90;;;;;;4901374;29;20037;-86
2021/03/18 01:22:37;;;;;;;5.05;3.40;;;3.00;99.90;;;;;;4918273;29;20028;-86
2021/03/18 01:25:03;;;;;;;3.95;3.08;;;3.30;99.90;;;;;;4901126;29;20543;-86
2021/03/18 01:27:29;;;;;;;7.78;3.10;;;3.30;99.90;;;;;;4901209;29;20061;-86
2021/03/18 01:29:54;;;;;;;5.88;3.17;;;3.40;99.90;;;;;;4901222;29;20441;-86
2021/03/18 01:32:20;;;;;;;5.32;3.08;;;3.00;99.90;;;;;;4901128;29;20035;-86
2021/03/18 01:34:45;;;;;;;7.82;3.80;;;2.90;99.90;;;;;;4901108;29;20032;-86
2021/03/18 01:37:11;;;;;;;4.60;3.10;;;2.60;99.90;;;;;;4901113;29;20076;-86
2021/03/18 01:39:37;;;;;;;5.03;3.42;;;2.60;99.90;;;;;;4900997;29;20032;-86
2021/03/18 01:42:03;;;;;;;4.32;3.38;;;2.60;99.90;;;;;;4901027;29;20433;-86
2021/03/18 01:44:29;;;;;;;6.50;3.30;;;2.80;99.90;;;;;;4917250;29;20102;-86
2021/03/18 01:46:55;;;;;;;9.55;4.10;;;3.00;99.90;;;;;;4900955;29;20116;-86
2021/03/18 01:49:21;;;;;;;7.28;3.40;;;2.80;99.90;;;;;;4900958;29;20035;-86
2021/03/18 01:51:46;;;;;;;7.03;3.30;;;2.70;99.90;;;;;;4900827;29;20549;-86
2021/03/18 01:54:13;;;;;;;5.90;3.15;;;2.50;99.90;;;;;;4900747;29;20054;-86
2021/03/18 01:56:39;;;;;;;3.70;2.85;;;2.90;99.90;;;;;;4900747;29;20087;-86
2021/03/18 01:59:05;;;;;;;6.68;3.22;;;2.80;99.90;;;;;;4900664;29;20028;-86
2021/03/18 02:01:33;;;;;;;6.47;3.75;;;;;;;;;;4917642;29;20488;-86
2021/03/18 02:03:59;;;;;;;8.27;3.65;;;;;;;;;;4900611;29;20052;-86
2021/03/18 02:06:26;;;;;;;8.50;3.40;;;2.20;99.90;;;;;;4900632;29;20163;-86
2021/03/18 02:08:52;;;;;;;5.88;3.30;;;2.30;99.90;;;;;;4900593;29;20063;-86
2021/03/18 02:11:17;;;;;;;9.88;3.47;;;2.40;99.90;;;;;;4900619;29;20498;-86
2021/03/18 02:13:43;;;;;;;7.80;3.90;;;2.10;99.90;;;;;;4900550;29;20032;-86
2021/03/18 02:16:12;;;;;;;6.72;3.38;;;2.00;99.90;;;;;;4900490;29;20024;-85
2021/03/18 02:19:17;;;;;;;5.55;3.38;;;2.00;99.90;;;;;;4917467;29;20035;-86
2021/03/18 02:22:01;;;;;;;4.20;3.03;;;2.40;99.90;;;;;;4818846;29;20046;-86
2021/03/18 02:25:05;;;;;;;7.13;3.40;;;2.80;99.90;;;;;;4917210;29;20027;-86
2021/03/18 02:27:46;;;;;;;5.95;3.33;;;2.80;99.90;;;;;;4917383;29;20024;-86
2021/03/18 02:30:33;;;;;;;6.30;3.42;;;2.80;99.90;;;;;;4900328;29;20185;-86
2021/03/18 02:33:27;;;;;;;6.28;3.10;;;2.60;99.90;;;;;;4917346;29;20052;-86
2021/03/18 02:36:02;;;;;;;;;;;2.80;99.90;;;;;;4900706;29;20043;-86
2021/03/18 02:38:35;;;;;;;6.82;3.15;;;2.70;99.90;;;;;;4900431;29;20018;-86
2021/03/18 02:41:05;;;;;;;7.72;3.30;;;2.70;99.90;;;;;;4900311;29;20038;-86
2021/03/18 02:43:36;;;;;;;6.45;3.35;;;2.10;99.90;;;;;;4900684;29;20024;-87
2021/03/18 02:46:04;;;;;;;6.40;3.33;;;2.10;99.90;;;;;;4900640;29;20028;-87
2021/03/18 02:48:34;;;;;;;7.25;3.55;;;2.10;99.90;;;;;;4900296;29;20506;-86
2021/03/18 02:51:02;;;;;;;6.03;3.60;;;2.40;99.90;;;;;;4900364;29;20095;-87
2021/03/18 02:53:30;;;;;;;5.47;2.95;;;2.60;99.90;;;;;;4900256;29;20028;-87
2021/03/18 02:56:00;;;;;;;4.70;2.88;;;2.60;99.90;;;;;;4903210;29;20028;-86
2021/03/18 02:58:29;;;;;;;5.60;3.20;;;2.70;99.90;;;;;;4903970;29;20087;-87
2021/03/18 03:00:57;;;;;;;6.57;3.30;;;2.80;99.90;;;;;;4903784;29;20028;-87
2021/03/18 03:03:24;;;;;;;5.38;2.90;;;2.70;99.90;;;;;;4920805;29;20488;-86
2021/03/18 03:05:53;;;;;;;9.20;3.33;;;3.00;99.90;;;;;;4903890;29;20060;-87
2021/03/18 03:08:20;;;;;;;5.32;3.47;;;3.10;99.90;;;;;;4920838;29;20051;-87
2021/03/18 03:10:48;;;;;;;5.20;3.25;;;3.10;99.90;;;;;;4904007;29;20100;-86
2021/03/18 03:13:15;;;;;;;7.57;3.13;;;3.20;99.90;;;;;;4903678;29;20036;-87
2021/03/18 03:15:42;;;;;;;7.03;3.30;;;3.40;99.90;;;;;;4903737;29;20039;-87
2021/03/18 03:18:10;;;;;;;5.13;2.65;;;3.50;99.90;;;;;;4903630;29;20080;-87
2021/03/18 03:20:37;;;;;;;6.85;3.10;;;3.50;99.90;;;;;;4920780;29;20070;-86
2021/03/18 03:23:05;;;;;;;5.53;2.90;;;2.80;99.90;;;;;;4903658;29;20484;-86
2021/03/18 03:25:36;;;;;;;5.22;2.88;;;3.00;99.90;;;;;;4903319;29;20075;-87
2021/03/18 03:28:04;;;;;;;8.52;3.83;;;2.90;99.90;;;;;;4903566;29;20028;-87
2021/03/18 03:30:31;;;;;;;5.10;3.25;;;2.70;99.90;;;;;;4903419;29;20092;-87
2021/03/18 03:32:56;;;;;;;6.93;3.50;;;2.60;99.90;;;;;;4903326;29;20028;-86
2021/03/18 03:35:22;;;;;;;4.50;3.20;;;2.60;99.90;;;;;;4903391;29;20034;-87
2021/03/18 03:37:49;;;;;;;4.22;2.88;;;2.70;99.90;;;;;;4903459;29;20028;-87
2021/03/18 03:40:18;;;;;;;4.90;2.60;;;3.10;99.90;;;;;;4903235;29;20044;-86
2021/03/18 03:42:44;;;;;;;4.88;3.08;;;3.10;99.90;;;;;;4903204;29;20400;-87
2021/03/18 03:45:12;;;;;;;5.72;3.22;;;3.20;99.90;;;;;;4903120;29;20028;-86
2021/03/18 03:47:39;;;;;;;6.07;3.47;;;3.20;99.90;;;;;;4903075;29;20020;-86
2021/03/18 03:50:09;;;;;;;8.23;3.72;;;3.10;99.90;;;;;;4903027;29;20076;-86
2021/03/18 03:52:42;;;;;;;5.30;2.85;;;2.80;99.90;;;;;;4920025;29;20429;-87
2021/03/18 03:55:26;;;;;;;6.32;3.60;;;2.70;99.90;;;;;;4903033;29;20031;-87
2021/03/18 03:58:11;;;;;;;6.10;3.42;;;2.50;99.90;;;;;;4919917;29;20035;-87
2021/03/18 04:00:39;;;;;;;5.03;3.38;;;2.70;99.90;;;;;;4920131;29;20035;-87
2021/03/18 04:03:08;;;;;;;6.80;3.58;;;2.70;99.90;;;;;;4919698;29;20048;-86
2021/03/18 04:05:37;;;;;;;7.22;3.30;;;2.40;99.90;;;;;;4919641;29;20084;-87
2021/03/18 04:08:07;;;;;;;8.48;3.40;;;2.40;99.90;;;;;;4919207;29;20024;-86
2021/03/18 04:10:34;;;;;;;6.70;3.33;;;2.30;99.90;;;;;;4902748;29;20166;-87
2021/03/18 04:13:02;;;;;;;7.25;3.63;;;2.00;99.90;;;;;;4902882;29;20032;-86
2021/03/18 04:15:31;;;;;;;8.68;3.67;;;2.20;99.90;;;;;;4902627;29;20122;-86
2021/03/18 04:18:00;;;;;;;5.65;3.55;;;2.30;99.90;;;;;;4919527;29;20039;-85
2021/03/18 04:20:28;;;;;;;7.45;3.58;;;2.60;99.90;;;;;;4919406;29;20481;-86
2021/03/18 04:22:56;;;;;;;7.82;3.75;;;2.60;99.90;;;;;;4919457;29;20031;-86
2021/03/18 04:25:25;;;;;;;5.43;3.55;;;2.40;99.90;;;;;;4902081;29;20040;-87
2021/03/18 04:27:52;;;;;;;5.78;3.35;;;2.30;99.90;;;;;;4902572;29;20079;-86
2021/03/18 04:30:20;;;;;;;8.07;3.80;;;2.40;99.90;;;;;;4919272;29;20035;-86
2021/03/18 04:32:47;;;;;;;6.10;3.53;;;2.60;99.90;;;;;;4902223;29;20024;-86
2021/03/18 04:35:14;;;;;;;6.30;3.10;;;2.60;99.90;;;;;;4902277;29;20028;-86
2021/03/18 04:37:41;;;;;;;7.70;3.35;;;2.40;99.90;;;;;;4902252;29;20074;-86
2021/03/18 04:40:09;;;;;;;9.63;4.18;;;2.50;99.90;;;;;;4902070;29;20091;-86
2021/03/18 04:42:36;;;;;;;9.13;3.70;;;2.40;99.90;;;;;;4902105;29;20030;-86
2021/03/18 04:45:05;;;;;;;6.78;3.30;;;2.60;99.90;;;;;;4902130;29;20027;-86
2021/03/18 04:47:31;;;;;;;4.65;3.00;;;2.60;99.90;;;;;;4901874;29;20035;-86
2021/03/18 04:49:58;;;;;;;6.28;3.47;;;2.80;99.90;;;;;;4901938;29;20032;-86
2021/03/18 04:52:24;;;;;;;3.92;3.38;;;3.00;99.90;;;;;;4902049;29;20032;-86
2021/03/18 04:54:49;;;;;;;16.55;6.53;;;2.60;99.90;;;;;;4901876;29;20032;-87
2021/03/18 04:57:19;;;;;;;11.63;5.20;;;2.20;99.90;;;;;;4918733;29;20028;-86
2021/03/18 04:59:46;;;;;;;9.10;3.95;;;2.40;99.90;;;;;;4901693;29;20492;-86
2021/03/18 05:02:13;;;;;;;7.65;3.90;;;2.30;99.90;;;;;;4901776;29;20024;-86
2021/03/18 05:04:40;;;;;;;6.30;3.50;;;2.40;99.90;;;;;;4901660;29;20048;-86
2021/03/18 05:07:06;;;;;;;7.45;4.15;;;2.50;99.90;;;;;;4901501;29;20404;-86
2021/03/18 05:09:34;;;;;;;8.52;4.22;;;2.30;99.90;;;;;;4901416;29;20036;-86
2021/03/18 05:12:01;;;;;;;7.97;4.13;;;2.50;99.90;;;;;;4918912;29;20028;-86
2021/03/18 05:14:27;;;;;;;7.68;3.38;;;2.60;99.90;;;;;;4901778;29;20024;-86
2021/03/18 05:16:54;;;;;;;7.35;3.70;;;2.50;99.90;;;;;;4918428;29;20123;-86
2021/03/18 05:19:21;;;;;;;5.65;3.42;;;2.70;99.90;;;;;;4900436;29;20086;-86
2021/03/18 05:21:48;;;;;;;8.13;3.90;;;2.60;99.90;;;;;;4901350;29;20020;-86
2021/03/18 05:24:14;;;;;;;7.18;4.35;;;2.70;99.90;;;;;;4901698;29;20499;-86
2021/03/18 05:26:42;;;;;;;9.23;4.45;;;2.60;99.90;;;;;;4901403;29;20486;-86
2021/03/18 05:29:08;;;;;;;8.13;4.38;;;2.50;99.90;;;;;;4902355;29;20020;-86
2021/03/18 05:31:35;;;;;;;8.70;4.20;;;2.40;99.90;;;;;;4901047;29;20028;-86
2021/03/18 05:34:01;;;;;;;8.43;4.80;;;2.50;99.90;;;;;;4918150;29;20079;-86
2021/03/18 05:36:26;;;;;;;8.82;5.28;;;2.60;99.90;;;;;;4918093;29;20029;-86
2021/03/18 05:38:52;;;;;;;9.30;5.82;;;2.70;99.90;;;;;;4901018;29;20024;-86
2021/03/18 05:41:21;;;;;;;9.82;5.90;;;2.60;99.90;;;;;;4901086;29;20052;-86
2021/03/18 05:43:48;;;;;;;8.85;4.60;;;2.70;99.90;;;;;;4901522;29;20114;-86
2021/03/18 05:46:15;;;;;;;10.38;5.20;;;2.60;99.90;;;;;;4900920;29;20034;-86
2021/03/18 05:48:45;;;;;;;6.47;4.47;;;2.60;99.90;;;;;;4900914;29;20520;-86
2021/03/18 05:51:16;;;;;;;9.40;4.63;;;2.80;99.90;;;;;;4900810;29;20028;-86
2021/03/18 05:53:44;;;;;;;6.78;4.05;;;2.90;99.90;;;;;;4900764;29;20099;-86
2021/03/18 05:56:17;;;;;;;15.60;5.35;;;2.90;99.90;;;;;;4900758;29;20032;-86
2021/03/18 05:58:48;;;;;;;10.93;5.20;;;3.10;99.90;;;;;;4900853;29;20038;-86
2021/03/18 06:01:15;;;;;;;10.32;5.55;;;2.90;99.90;;;;;;4900694;29;20388;-86
2021/03/18 06:03:41;;;;;;;10.23;6.32;;;2.60;99.90;;;;;;4900700;29;20388;-86
2021/03/18 06:06:08;;;;;;;10.02;5.50;;;2.50;99.90;;;;;;4900867;29;20107;-86
2021/03/18 06:08:36;;;;;;;13.82;5.22;;;2.30;99.90;;;;;;4900535;29;20036;-86
2021/03/18 06:11:03;;;;;;;10.82;4.90;;;2.40;99.90;;;;;;4900493;29;20032;-86
2021/03/18 06:13:29;;;;;;;12.88;5.25;;;2.70;99.90;;;;;;4900453;29;20028;-86
2021/03/18 06:15:55;;;;;;;10.77;6.05;;;2.80;99.90;;;;;;4900434;29;20035;-86
2021/03/18 06:18:21;;;;;;;11.00;5.85;;;2.80;99.90;;;;;;4900871;29;20028;-86
2021/03/18 06:20:52;;;;;;;10.35;5.50;;;2.60;99.90;;;;;;4900399;29;20072;-86
2021/03/18 06:23:19;;;;;;;8.77;5.65;;;2.70;99.90;;;;;;4900326;29;20511;-86
2021/03/18 06:25:46;;;;;;;14.02;6.70;;;3.00;99.90;;;;;;4917165;29;20051;-86
2021/03/18 06:28:13;;;;;;;8.18;5.30;;;2.90;99.90;;;;;;4917344;29;20080;-86
2021/03/18 06:30:41;;;;;;;7.10;4.43;;;2.60;99.90;;;;;;4900905;29;20032;-86
2021/03/18 06:33:23;;;;;;;7.65;5.35;;;2.70;99.90;;;;;;4917219;29;20036;-87
2021/03/18 06:35:49;;;;;;;12.68;5.97;;;2.80;99.90;;;;;;4900318;29;20123;-86
2021/03/18 06:38:15;;;;;;;7.85;5.35;;;2.90;99.90;;;;;;4900299;29;20067;-86
2021/03/18 06:40:46;;;;;;;8.43;4.70;;;3.00;99.90;;;;;;4900227;29;20028;-86
2021/03/18 06:43:12;;;;;;;10.93;5.20;;;3.20;99.90;;;;;;4900585;29;20028;-85
2021/03/18 06:45:44;;;;;;;10.35;5.20;;;3.10;99.90;;;;;;4900559;29;20111;-86
2021/03/18 06:48:15;;;;;;;9.23;4.60;;;3.30;99.90;;;;;;4900013;29;20504;-86
2021/03/18 06:50:44;;;;;;;10.30;5.00;;;3.40;99.90;;;;;;4900401;29;20032;-86
2021/03/18 06:53:28;;;;;;;12.25;5.28;;;3.40;99.90;;;;;;4917125;29;20472;-86
2021/03/18 06:55:54;;;;;;;11.98;4.68;;;3.20;99.90;;;;;;4900194;29;20040;-86
2021/03/18 06:58:22;;;;;;;11.57;5.53;;;3.30;99.90;;;;;;4917095;29;20035;-87
2021/03/18 07:00:54;;;;;;;12.32;5.20;;;3.10;99.90;;;;;;4900000;29;20032;-86
2021/03/18 07:03:35;;;;;;;10.05;5.50;;;3.00;99.90;;;;;;4900354;29;20076;-86
2021/03/18 07:06:23;;;;;;;14.07;6.05;;;2.80;99.90;;;;;;4899955;29;20066;-86
2021/03/18 07:09:08;;;;;;;8.07;4.78;;;2.70;99.90;;;;;;4900170;29;20035;-86
2021/03/18 07:11:40;;;;;;;12.48;5.90;;;2.80;99.90;;;;;;4917512;29;20028;-87
2021/03/18 07:14:06;;;;;;;12.07;4.97;;;2.90;99.90;;;;;;4917409;29;20032;-86
2021/03/18 07:16:48;;;;;;;12.60;6.35;;;3.00;99.90;;;;;;4917592;29;20095;-87
2021/03/18 07:19:28;;;;;;;10.30;5.57;;;3.10;99.90;;;;;;4900009;29;20499;-87
2021/03/18 07:21:55;;;;;;;10.95;7.00;;;3.20;99.90;;;;;;4900187;29;20391;-87
2021/03/18 07:24:32;;;;;;;8.73;5.75;;;3.30;99.90;;;;;;4916703;29;20029;-87
2021/03/18 07:27:07;;;;;;;12.38;6.32;;;3.30;99.90;;;;;;4899896;29;20083;-87
2021/03/18 07:29:33;;;;;;;12.52;6.53;;;3.50;99.90;;;;;;4899934;29;20035;-87
2021/03/18 07:31:59;;;;;;;12.73;5.97;;;3.60;99.90;;;;;;4899766;29;20032;-87
2021/03/18 07:34:25;;;;;;;11.32;5.68;;;3.70;99.90;;;;;;4899888;29;20038;-86
2021/03/18 07:36:56;;;;;;;8.00;5.50;;;4.20;99.90;;;;;;4900790;29;20031;-86
2021/03/18 07:39:23;;;;;;;10.65;6.10;;;4.40;99.90;;;;;;4901215;29;20552;-86
2021/03/18 07:41:50;;;;;;;11.02;5.88;;;4.30;99.90;;;;;;4902084;29;20024;-87
2021/03/18 07:44:16;;;;;;;11.55;6.30;;;4.30;99.90;;;;;;4903317;29;20516;-86
2021/03/18 07:46:45;;;;;;;7.95;5.85;;;4.40;99.90;;;;;;4920320;29;20044;-86
2021/03/18 07:49:27;;;;;;;14.80;5.47;;;4.30;99.90;;;;;;4903008;29;20032;-85
2021/03/18 07:51:57;;;;;;;10.73;5.88;;;4.50;99.90;;;;;;4920280;29;20521;-86
2021/03/18 07:54:24;;;;;;;10.50;5.82;;;4.50;99.90;;;;;;4902939;29;20024;-85
2021/03/18 07:56:56;;;;;;;11.10;5.47;;;4.60;99.90;;;;;;4902924;29;20417;-86
2021/03/18 07:59:29;;;;;;;8.80;5.20;;;4.30;99.90;;;;;;4919830;29;20031;-86
2021/03/18 08:02:17;;;;;;;8.10;5.60;;;4.40;99.90;;;;;;4903004;29;20052;-85
2021/03/18 08:04:48;;;;;;;11.68;6.18;;;4.70;99.90;;;;;;4902908;29;20099;-85
2021/03/18 08:07:42;;;;;;;10.93;5.85;;;4.70;99.90;;;;;;4902762;29;20031;-85
2021/03/18 08:10:20;;;;;;;13.43;6.90;;;4.50;99.90;;;;;;4919658;29;20032;-85
2021/03/18 08:12:51;;;;;;;13.45;6.25;;;4.50;99.90;;;;;;4919869;29;20036;-85
2021/03/18 08:15:19;;;;;;;9.60;5.03;;;4.40;99.90;;;;;;4902674;29;20032;-85
2021/03/18 08:17:44;;;;;;;13.43;7.32;;;4.60;99.90;;;;;;4902750;29;20491;-84
2021/03/18 08:20:11;;;;;;;14.55;6.88;;;4.90;99.90;;;;;;4902481;29;20029;-85
2021/03/18 08:22:36;;;;;;;9.50;6.38;;;4.70;99.90;;;;;;4919422;29;20103;-86
2021/03/18 08:25:22;;;;;;;10.48;6.95;;;4.40;99.90;;;;;;4902322;29;20059;-86
2021/03/18 08:27:48;;;;;;;10.77;7.90;;;4.50;99.90;;;;;;4919379;29;20028;-85
2021/03/18 08:30:27;;;;;;;14.35;6.93;;;4.60;99.90;;;;;;4919326;29;20036;-85
2021/03/18 08:32:52;;;;;;;11.50;5.55;;;4.90;99.90;;;;;;4902094;29;20035;-88
2021/03/18 08:35:28;;;;;;;10.25;5.70;;;5.20;99.90;;;;;;4902633;29;20029;-89
2021/03/18 08:38:12;;;;;;;12.98;7.00;;;5.50;99.90;;;;;;4902668;29;20043;-88
2021/03/18 08:40:38;;;;;;;9.85;5.78;;;5.60;99.90;;;;;;4902402;29;20034;-88
2021/03/18 08:43:06;;;;;;;12.60;7.25;;;5.40;99.90;;;;;;4903313;29;20433;-89
2021/03/18 08:45:32;;;;;;;11.93;8.30;;;5.40;99.90;;;;;;4903246;29;20466;-89
2021/03/18 08:48:09;;;;;;;13.25;8.13;;;5.50;99.90;;;;;;4903885;29;20029;-90
2021/03/18 08:50:34;;;;;;;159.95;79.18;;;5.30;99.90;;;;;;4902966;29;20095;-89
2021/03/18 08:53:02;;;;;;;21.25;10.90;;;5.40;99.90;;;;;;4902686;29;20032;-88
2021/03/18 08:55:36;;;;;;;16.55;9.70;;;5.50;99.90;;;;;;4902792;29;20024;-88
2021/03/18 08:58:03;;;;;;;;;;;5.80;99.90;;;;;;4903392;29;20024;-89
2021/03/18 09:00:29;;;;;;;17.00;8.82;;;5.90;99.90;;;;;;4902989;29;19918;-89
2021/03/18 09:02:54;;;;;;;14.13;8.18;;;6.00;99.90;;;;;;4902772;29;20079;-89
2021/03/18 09:05:22;;;;;;;16.77;8.30;;;5.70;99.90;;;;;;4902673;29;20024;-89
2021/03/18 09:07:59;;;;;;;13.13;7.55;;;5.40;99.90;;;;;;4902462;29;20025;-89
2021/03/18 09:10:28;;;;;;;11.38;7.45;;;5.30;99.90;;;;;;4902507;29;20079;-88
2021/03/18 09:12:55;;;;;;;14.38;8.90;;;5.40;99.90;;;;;;4903679;29;20036;-88
2021/03/18 09:15:31;;;;;;;17.00;7.97;;;5.60;99.90;;;;;;4902415;29;20477;-89
2021/03/18 09:18:21;;;;;;;13.18;7.70;;;5.80;99.90;;;;;;4902922;29;20059;-88
2021/03/18 09:20:47;;;;;;;14.02;7.55;;;5.60;99.90;;;;;;4903049;29;20024;-89
2021/03/18 09:23:18;;;;;;;15.65;7.05;;;5.60;99.90;;;;;;4902589;29;20028;-88
2021/03/18 09:25:46;;;;;;;14.55;7.68;;;5.70;99.90;;;;;;4901756;29;20087;-88
2021/03/18 09:28:12;;;;;;;12.07;7.40;;;6.00;99.90;;;;;;4901791;29;20115;-89
2021/03/18 09:30:50;;;;;;;15.30;8.13;;;5.70;99.90;;;;;;4902788;29;20473;-89
2021/03/18 09:33:25;;;;;;;12.15;7.18;;;5.30;99.90;;;;;;4902431;29;20035;-89
2021/03/18 09:35:55;;;;;;;11.77;7.05;;;5.30;99.90;;;;;;4901854;29;20053;-88
2021/03/18 09:38:25;;;;;;;13.32;7.18;;;5.20;99.90;;;;;;4902325;29;20033;-89
2021/03/18 09:40:55;;;;;;;10.00;6.95;;;5.20;99.90;;;;;;4902193;29;20032;-89
2021/03/18 09:43:23;;;;;;;13.93;7.55;;;5.20;99.90;;;;;;4902979;29;20067;-89
2021/03/18 09:45:55;;;;;;;12.10;6.57;;;4.90;99.90;;;;;;4902128;29;20107;-89
2021/03/18 09:48:33;;;;;;;10.77;6.30;;;4.90;99.90;;;;;;4902580;29;20118;-89
2021/03/18 09:51:07;;;;;;;10.45;6.63;;;4.80;99.90;;;;;;4902265;29;20024;-89
2021/03/18 09:53:37;;;;;;;14.23;7.10;;;4.70;99.90;;;;;;4917667;29;20028;-88
2021/03/18 09:56:06;;;;;;;15.52;7.65;;;4.70;99.90;;;;;;4909053;29;20059;-89
2021/03/18 09:58:31;;;;;;;13.40;6.70;;;4.70;99.90;;;;;;4902958;29;20032;-89
2021/03/18 10:00:57;;;;;;;12.80;6.63;;;4.70;99.90;;;;;;4902311;29;20028;-89
2021/03/18 10:03:23;;;;;;;9.93;6.50;;;4.70;99.90;;;;;;4903028;29;20028;-89
2021/03/18 10:05:49;;;;;;;15.00;6.40;;;4.60;99.90;;;;;;4902015;29;20020;-89
2021/03/18 10:08:22;;;;;;;57.78;40.67;;;4.60;99.90;;;;;;4902131;29;20037;-89
2021/03/18 10:10:47;;;;;;;179.38;83.55;;;4.60;99.90;;;;;;4902014;29;20024;-87
2021/03/18 10:13:15;;;;;;;23.08;9.93;;;4.60;99.90;;;;;;4902309;29;20028;-90
2021/03/18 10:15:50;;;;;;;180.15;79.40;;;4.60;99.90;;;;;;4901796;29;20032;-90
2021/03/18 10:18:15;;;;;;;63.17;32.10;;;4.80;99.90;;;;;;4901958;29;20032;-89
2021/03/18 10:20:41;;;;;;;27.92;18.17;;;4.90;99.90;;;;;;4901146;29;20028;-90
2021/03/18 10:23:11;;;;;;;13.45;7.35;;;5.10;99.90;;;;;;4900547;29;20028;-88
2021/03/18 10:25:39;;;;;;;20.90;8.82;;;5.50;99.90;;;;;;4900661;29;20048;-88
2021/03/18 10:28:09;;;;;;;13.60;8.45;;;6.30;99.90;;;;;;4900461;29;20119;-88
2021/03/18 10:30:39;;;;;;;17.80;8.18;;;7.00;99.90;;;;;;4900483;29;20036;-88
2021/03/18 10:33:11;;;;;;;19.50;9.35;;;7.70;99.90;;;;;;4900197;29;20028;-88
2021/03/18 10:35:45;;;;;;;14.32;7.25;;;8.30;99.90;;;;;;4902433;29;20107;-88
2021/03/18 10:38:19;;;;;;;15.00;7.90;;;8.60;99.90;;;;;;4900650;29;20104;-88
2021/03/18 10:40:46;;;;;;;15.68;7.20;;;8.90;99.90;;;;;;4901557;29;20100;-88
2021/03/18 10:43:29;;;;;;;14.00;6.88;;;9.20;99.90;;;;;;4901047;29;20024;-87
2021/03/18 10:46:02;;;;;;;11.23;6.72;;;9.40;99.90;;;;;;4901461;29;20437;-88
2021/03/18 10:48:30;;;;;;;10.93;5.85;;;9.40;99.90;;;;;;4900547;29;20035;-88
2021/03/18 10:51:12;;;;;;;12.32;6.38;;;9.50;99.90;;;;;;4900436;29;20032;-88
2021/03/18 10:53:40;;;;;;;10.35;5.65;;;9.40;99.90;;;;;;4900674;29;20056;-88
2021/03/18 10:56:09;;;;;;;11.68;6.13;;;8.80;99.90;;;;;;4900769;29;20087;-87
2021/03/18 10:58:35;;;;;;;11.82;6.63;;;8.80;99.90;;;;;;4900527;29;20032;-87
2021/03/18 11:01:05;;;;;;;8.52;5.63;;;8.50;99.90;;;;;;4900241;29;20381;-88
2021/03/18 11:03:33;;;;;;;13.32;5.45;;;8.20;99.90;;;;;;4900090;29;20024;-88
2021/03/18 11:05:59;;;;;;;10.40;5.70;;;8.00;99.90;;;;;;4900109;29;20027;-86
2021/03/18 11:08:33;;;;;;;9.93;5.05;;;9.30;99.90;;;;;;4900377;29;20084;-86
2021/03/18 11:11:02;;;;;;;12.00;5.45;;;10.10;99.90;;;;;;4900031;29;20036;-86
2021/03/18 11:13:30;;;;;;;11.93;5.45;;;10.40;99.90;;;;;;4916976;29;20036;-86
2021/03/18 11:16:02;;;;;;;11.70;5.43;;;10.00;99.90;;;;;;4901627;29;20035;-87
2021/03/18 11:18:29;;;;;;;11.30;5.22;;;9.50;99.90;;;;;;4903785;29;20366;-87
2021/03/18 11:20:55;;;;;;;10.77;5.10;;;8.80;99.90;;;;;;4903633;29;20176;-87
2021/03/18 11:23:33;;;;;;;7.50;4.00;;;8.80;99.90;;;;;;4903585;29;20397;-87
2021/03/18 11:26:03;;;;;;;9.10;5.13;;;9.10;99.90;;;;;;4903706;29;20071;-87
2021/03/18 11:28:29;;;;;;;8.18;4.90;;;8.40;99.90;;;;;;4920738;29;20024;-88
2021/03/18 11:30:57;;;;;;;13.43;4.75;;;8.20;99.90;;;;;;4903361;29;20440;-88
2021/03/18 11:33:32;;;;;;;9.70;4.53;;;8.00;99.90;;;;;;4903317;29;20028;-88
2021/03/18 11:36:00;;;;;;;9.35;4.93;;;7.70;99.90;;;;;;4903542;29;20235;-87
2021/03/18 11:38:26;;;;;;;7.88;4.88;;;7.50;99.90;;;;;;4903520;29;20099;-88
2021/03/18 11:40:52;;;;;;;9.02;4.38;;;7.40;99.90;;;;;;4903384;29;20028;-88
2021/03/18 11:43:18;;;;;;;10.02;5.03;;;7.00;99.90;;;;;;4904043;29;20024;-88
2021/03/18 11:45:44;;;;;;;11.98;4.55;;;6.70;99.90;;;;;;4903412;29;20031;-88
2021/03/18 11:48:10;;;;;;;13.20;6.63;;;6.50;99.90;;;;;;4903225;29;20024;-88
2021/03/18 11:50:37;;;;;;;8.32;4.50;;;6.30;99.90;;;;;;4903150;29;20066;-88
2021/03/18 11:53:03;;;;;;;9.18;4.38;;;6.30;99.90;;;;;;4920186;29;20028;-88
2021/03/18 11:55:36;;;;;;;8.35;4.60;;;6.40;99.90;;;;;;4903441;29;20029;-88
2021/03/18 11:58:04;;;;;;;11.23;4.97;;;6.50;99.90;;;;;;4903536;29;20032;-88
2021/03/18 12:00:34;;;;;;;7.72;4.43;;;6.40;99.90;;;;;;4904105;29;20465;-88
2021/03/18 12:03:01;;;;;;;10.98;5.47;;;6.30;99.90;;;;;;4903142;29;20552;-88
2021/03/18 12:05:27;;;;;;;8.43;4.63;;;6.10;99.90;;;;;;4903392;29;20031;-88
2021/03/18 12:07:53;;;;;;;8.05;4.88;;;6.20;99.90;;;;;;4920119;29;20034;-88
2021/03/18 12:10:19;;;;;;;7.10;4.15;;;6.40;99.90;;;;;;4904114;29;20031;-88
2021/03/18 12:13:02;;;;;;;7.13;4.00;;;6.70;99.90;;;;;;4907178;29;20039;-88
2021/03/18 12:15:31;;;;;;;6.93;3.25;;;7.20;99.90;;;;;;4904375;29;20111;-88
2021/03/18 12:18:04;;;;;;;6.50;3.60;;;7.20;99.90;;;;;;4904339;29;20063;-89
2021/03/18 12:20:30;;;;;;;8.70;3.97;;;6.90;99.90;;;;;;4903577;29;20029;-88
2021/03/18 12:23:02;;;;;;;11.45;3.58;;;6.80;99.90;;;;;;4903516;29;20020;-88
2021/03/18 12:25:44;;;;;;;6.90;3.60;;;6.30;99.90;;;;;;4903078;29;20044;-87
2021/03/18 12:28:12;;;;;;;7.40;4.35;;;6.10;99.90;;;;;;4902534;29;20028;-87
2021/03/18 12:30:46;;;;;;;7.20;4.68;;;5.70;99.90;;;;;;4903197;29;20068;-87
2021/03/18 12:33:13;;;;;;;13.50;5.13;;;5.80;99.90;;;;;;4902786;29;20028;-87
2021/03/18 12:35:39;;;;;;;10.10;4.53;;;5.60;99.90;;;;;;4903265;29;20380;-88
2021/03/18 12:38:12;;;;;;;11.13;4.78;;;5.50;99.90;;;;;;4902471;29;20028;-87
2021/03/18 12:40:38;;;;;;;12.13;4.75;;;5.30;99.90;;;;;;4903231;29;20036;-88
2021/03/18 12:43:06;;;;;;;7.47;4.85;;;5.30;99.90;;;;;;4903567;29;20286;-88
2021/03/18 12:45:32;;;;;;;7.38;5.00;;;5.40;99.90;;;;;;4902359;29;20469;-88
2021/03/18 12:48:09;;;;;;;8.55;3.70;;;5.50;99.90;;;;;;4902245;29;20043;-88
2021/03/18 12:50:36;;;;;;;6.88;4.05;;;5.60;99.90;;;;;;4902549;29;20036;-88
2021/03/18 12:53:02;;;;;;;8.57;4.20;;;5.70;99.90;;;;;;4902770;29;20044;-87
2021/03/18 12:55:28;;;;;;;9.77;4.28;;;5.80;99.90;;;;;;4902834;29;20469;-88
2021/03/18 12:58:05;;;;;;;6.20;3.92;;;5.60;99.90;;;;;;4902012;29;20039;-88
2021/03/18 13:00:39;;;;;;;7.93;4.25;;;5.70;99.90;;;;;;4902390;29;20028;-87
2021/03/18 13:03:08;;;;;;;8.32;4.60;;;5.90;99.90;;;;;;4901212;29;20095;-87
2021/03/18 13:05:36;;;;;;;8.18;3.00;;;7.20;99.90;;;;;;4902019;29;20040;-87